createdAt,value
2023-01-18T00:02:14.427Z,3.80
2023-01-18T00:04:41.682Z,6.97
2023-01-18T00:07:08.953Z,4.72
2023-01-18T00:09:36.203Z,4.60
2023-01-18T00:12:03.505Z,6.25
2023-01-18T00:14:31.113Z,8.32
2023-01-18T00:16:58.344Z,3.88
2023-01-18T00:19:25.591Z,6.43
2023-01-18T00:21:55.709Z,3.22
2023-01-18T00:24:23.522Z,6.30
2023-01-18T00:26:50.991Z,4.78
2023-01-18T00:29:18.349Z,2.72
2023-01-18T00:31:45.711Z,3.08
2023-01-18T00:34:13.029Z,2.45
2023-01-18T00:36:40.701Z,5.57
2023-01-18T00:39:08.878Z,4.55
2023-01-18T00:41:56.074Z,3.87
2023-01-18T00:44:23.332Z,5.03
2023-01-18T00:46:50.592Z,4.88
2023-01-18T00:49:17.870Z,7.57
2023-01-18T00:51:45.094Z,4.70
2023-01-18T00:54:12.377Z,5.80
2023-01-18T00:56:39.564Z,4.50
2023-01-18T00:59:06.751Z,3.80
2023-01-18T01:01:34.180Z,4.43
2023-01-18T01:04:21.098Z,7.53
2023-01-18T01:06:48.392Z,7.65
2023-01-18T01:09:17.421Z,4.30
2023-01-18T01:14:51.102Z,4.03
2023-01-18T01:17:37.373Z,5.47
2023-01-18T01:20:23.814Z,11.73
2023-01-18T01:23:10.053Z,6.70
2023-01-18T01:26:00.139Z,6.38
2023-01-18T01:28:27.593Z,5.72
2023-01-18T01:31:04.297Z,6.03
2023-01-18T01:33:32.087Z,6.10
2023-01-18T01:36:18.473Z,6.95
2023-01-18T01:38:46.059Z,8.88
2023-01-18T01:41:25.464Z,4.78
2023-01-18T01:44:04.679Z,5.32
2023-01-18T01:46:34.763Z,8.82
2023-01-18T01:49:16.384Z,6.60
2023-01-18T01:51:45.076Z,4.13
2023-01-18T01:54:22.747Z,5.75
2023-01-18T01:56:50.880Z,8.65
2023-01-18T01:59:18.841Z,3.22
2023-01-18T02:01:46.863Z,4.15
2023-01-18T02:04:14.259Z,6.33
2023-01-18T02:06:42.472Z,10.65
2023-01-18T02:09:14.442Z,7.88
2023-01-18T02:11:43.101Z,7.38
2023-01-18T02:14:12.466Z,5.88
2023-01-18T02:16:54.896Z,8.40
2023-01-18T02:19:28.695Z,8.50
2023-01-18T02:22:30.915Z,8.63
2023-01-18T02:24:59.037Z,4.95
2023-01-18T02:27:34.669Z,8.95
2023-01-18T02:30:01.964Z,3.13
2023-01-18T02:32:38.345Z,3.25
2023-01-18T02:35:08.405Z,4.50
2023-01-18T02:37:39.813Z,5.95
2023-01-18T02:40:16.406Z,5.05
2023-01-18T02:43:03.811Z,7.95
2023-01-18T02:46:16.044Z,8.38
2023-01-18T02:48:44.728Z,12.23
2023-01-18T02:51:12.537Z,10.73
2023-01-18T02:53:41.937Z,13.63
2023-01-18T02:56:14.786Z,11.95
2023-01-18T02:58:45.172Z,14.40
2023-01-18T03:01:12.518Z,14.32
2023-01-18T03:03:42.104Z,15.48
2023-01-18T03:06:09.647Z,12.13
2023-01-18T03:08:41.954Z,16.55
2023-01-18T03:11:19.762Z,18.90
2023-01-18T03:13:57.827Z,22.30
2023-01-18T03:16:27.781Z,21.83
2023-01-18T03:19:01.837Z,17.85
2023-01-18T03:21:33.413Z,15.45
2023-01-18T03:24:03.782Z,15.40
2023-01-18T03:26:32.117Z,17.73
2023-01-18T03:29:19.784Z,13.43
2023-01-18T03:32:10.530Z,15.93
2023-01-18T03:34:45.196Z,19.02
2023-01-18T03:37:14.890Z,13.07
2023-01-18T03:39:45.160Z,20.13
2023-01-18T03:42:17.550Z,15.88
2023-01-18T03:45:07.991Z,15.40
2023-01-18T03:47:35.658Z,16.15
2023-01-18T03:50:03.027Z,17.02
2023-01-18T03:52:43.373Z,17.52
2023-01-18T03:55:14.194Z,16.35
2023-01-18T03:57:41.455Z,17.30
2023-01-18T04:00:11.624Z,18.13
2023-01-18T04:02:39.070Z,17.30
2023-01-18T04:05:06.941Z,18.08
2023-01-18T04:07:34.235Z,18.75
2023-01-18T04:10:01.777Z,17.35
2023-01-18T04:12:29.163Z,18.50
2023-01-18T04:14:56.370Z,17.77
2023-01-18T04:17:23.597Z,21.15
2023-01-18T04:19:50.840Z,21.73
2023-01-18T04:22:18.124Z,22.17
2023-01-18T04:24:45.551Z,19.58
2023-01-18T04:27:12.894Z,26.23
2023-01-18T04:29:40.217Z,21.80
2023-01-18T04:32:07.469Z,19.52
2023-01-18T04:34:35.171Z,22.42
2023-01-18T04:37:02.507Z,19.95
2023-01-18T04:39:29.753Z,20.23
2023-01-18T04:41:57.353Z,28.70
2023-01-18T04:44:24.891Z,34.65
2023-01-18T04:46:52.688Z,31.90
2023-01-18T04:49:20.098Z,37.13
2023-01-18T04:51:47.382Z,34.55
2023-01-18T04:54:16.611Z,35.83
2023-01-18T04:56:43.982Z,27.40
2023-01-18T04:59:14.684Z,34.95
2023-01-18T05:01:42.197Z,37.45
2023-01-18T05:04:09.552Z,31.75
2023-01-18T05:06:36.796Z,34.65
2023-01-18T05:09:05.277Z,41.22
2023-01-18T05:11:32.534Z,32.35
2023-01-18T05:13:59.793Z,37.10
2023-01-18T05:16:27.356Z,41.53
2023-01-18T05:18:54.747Z,32.35
2023-01-18T05:21:21.957Z,31.98
2023-01-18T05:23:49.520Z,32.90
2023-01-18T05:26:21.547Z,39.85
2023-01-18T05:28:50.023Z,57.05
2023-01-18T05:31:21.385Z,57.22
2023-01-18T05:33:49.148Z,55.58
2023-01-18T05:36:16.518Z,37.35
2023-01-18T05:38:43.773Z,61.78
2023-01-18T05:41:11.061Z,59.58
2023-01-18T05:43:38.482Z,52.97
2023-01-18T05:46:06.181Z,42.05
2023-01-18T05:48:33.511Z,82.13
2023-01-18T05:51:00.809Z,51.75
2023-01-18T05:53:28.051Z,60.85
2023-01-18T05:55:56.287Z,54.35
2023-01-18T05:58:23.644Z,62.65
2023-01-18T06:00:50.893Z,80.65
2023-01-18T06:03:18.516Z,65.20
2023-01-18T06:05:46.991Z,48.47
2023-01-18T06:08:15.015Z,51.60
2023-01-18T06:10:42.437Z,55.63
2023-01-18T06:13:09.799Z,56.83
2023-01-18T06:15:37.126Z,54.33
2023-01-18T06:18:04.413Z,58.60
2023-01-18T06:20:31.736Z,54.88
2023-01-18T06:22:59.534Z,67.38
2023-01-18T06:25:27.066Z,51.15
2023-01-18T06:27:54.315Z,42.88
2023-01-18T06:30:21.777Z,46.28
2023-01-18T06:32:49.876Z,44.15
2023-01-18T06:35:17.241Z,46.87
2023-01-18T06:37:46.499Z,49.00
2023-01-18T06:40:14.137Z,47.75
2023-01-18T06:42:41.493Z,44.63
2023-01-18T06:45:09.051Z,46.42
2023-01-18T06:47:36.244Z,74.80
2023-01-18T06:50:03.649Z,51.10
2023-01-18T06:52:31.010Z,48.00
2023-01-18T06:54:58.238Z,45.88
2023-01-18T06:57:25.553Z,41.80
2023-01-18T06:59:53.363Z,42.20
2023-01-18T07:02:23.788Z,49.22
2023-01-18T07:04:51.086Z,50.03
2023-01-18T07:07:18.373Z,53.78
2023-01-18T07:09:45.614Z,53.40
2023-01-18T07:12:12.893Z,54.38
2023-01-18T07:14:40.281Z,54.78
2023-01-18T07:17:08.645Z,50.33
2023-01-18T07:19:36.015Z,51.17
2023-01-18T07:22:03.293Z,50.40
2023-01-18T07:24:30.572Z,48.58
2023-01-18T07:27:00.885Z,85.53
2023-01-18T07:29:28.179Z,54.50
2023-01-18T07:31:56.021Z,64.78
2023-01-18T07:34:23.722Z,58.20
2023-01-18T07:36:51.107Z,46.92
2023-01-18T07:39:18.323Z,53.60
2023-01-18T07:41:45.572Z,54.50
2023-01-18T07:44:13.793Z,44.60
2023-01-18T07:46:43.112Z,54.05
2023-01-18T07:49:10.461Z,51.30
2023-01-18T07:51:37.752Z,53.97
2023-01-18T07:54:05.068Z,56.60
2023-01-18T07:56:32.211Z,53.50
2023-01-18T07:59:03.160Z,48.70
2023-01-18T08:01:30.503Z,70.82
2023-01-18T08:03:57.889Z,65.45
2023-01-18T08:06:25.995Z,55.35
2023-01-18T08:08:55.085Z,64.03
2023-01-18T08:11:22.333Z,57.17
2023-01-18T08:13:50.608Z,61.22
2023-01-18T08:16:18.362Z,63.35
2023-01-18T08:18:45.920Z,73.95
2023-01-18T08:21:13.969Z,111.70
2023-01-18T08:23:41.709Z,62.03
2023-01-18T08:26:09.983Z,67.50
2023-01-18T08:28:37.465Z,69.53
2023-01-18T08:31:10.365Z,56.97
2023-01-18T08:33:38.678Z,61.63
2023-01-18T08:36:06.079Z,54.97
2023-01-18T08:38:33.327Z,59.20
2023-01-18T08:41:02.555Z,56.72
2023-01-18T08:43:30.054Z,58.45
2023-01-18T08:45:57.262Z,70.85
2023-01-18T08:48:24.487Z,71.18
2023-01-18T08:50:53.262Z,63.83
2023-01-18T08:53:21.574Z,69.40
2023-01-18T08:55:49.694Z,68.82
2023-01-18T08:58:16.986Z,77.82
2023-01-18T09:00:45.893Z,71.90
2023-01-18T09:03:13.432Z,66.15
2023-01-18T09:05:40.712Z,63.03
2023-01-18T09:08:08.417Z,52.58
2023-01-18T09:10:49.079Z,52.65
2023-01-18T09:13:16.632Z,65.75
2023-01-18T09:15:45.532Z,58.38
2023-01-18T09:20:40.217Z,64.22
2023-01-18T09:23:08.809Z,78.05
2023-01-18T09:25:36.780Z,45.85
2023-01-18T09:28:04.784Z,48.70
2023-01-18T09:30:32.416Z,64.00
2023-01-18T09:33:00.141Z,61.78
2023-01-18T09:35:27.543Z,53.17
2023-01-18T09:37:55.648Z,53.67
2023-01-18T09:40:23.855Z,73.93
2023-01-18T09:42:52.581Z,61.30
2023-01-18T09:45:31.166Z,60.08
2023-01-18T09:48:06.536Z,68.13
2023-01-18T09:50:37.718Z,57.13
2023-01-18T09:53:17.085Z,35.28
2023-01-18T09:55:44.203Z,41.40
2023-01-18T09:58:32.210Z,36.15
2023-01-18T10:01:08.712Z,46.92
2023-01-18T10:03:51.175Z,61.10
2023-01-18T10:06:22.260Z,72.50
2023-01-18T10:08:55.450Z,56.92
2023-01-18T10:11:33.141Z,60.88
2023-01-18T10:14:16.016Z,57.30
2023-01-18T10:16:43.256Z,51.22
2023-01-18T10:19:14.575Z,54.05
2023-01-18T10:21:50.974Z,57.40
2023-01-18T10:24:21.761Z,56.03
2023-01-18T10:26:51.225Z,43.38
2023-01-18T10:29:22.723Z,56.10
2023-01-18T10:32:00.398Z,41.22
2023-01-18T10:34:32.156Z,48.95
2023-01-18T10:37:14.547Z,60.17
2023-01-18T10:39:44.791Z,75.20
2023-01-18T10:42:32.259Z,55.75
2023-01-18T10:44:59.641Z,44.10
2023-01-18T10:47:26.912Z,42.95
2023-01-18T10:49:58.397Z,48.00
2023-01-18T10:52:28.495Z,48.47
2023-01-18T10:55:01.241Z,43.50
2023-01-18T10:57:32.985Z,38.95
2023-01-18T11:00:00.382Z,36.80
2023-01-18T11:02:29.650Z,39.95
2023-01-18T11:04:59.338Z,42.65
2023-01-18T11:07:27.285Z,40.75
2023-01-18T11:09:55.865Z,56.65
2023-01-18T11:12:34.951Z,38.85
2023-01-18T11:15:14.313Z,48.75
2023-01-18T11:17:43.427Z,47.53
2023-01-18T11:20:31.140Z,48.60
2023-01-18T11:23:00.759Z,68.53
2023-01-18T11:25:35.596Z,74.97
2023-01-18T11:28:03.260Z,63.90
2023-01-18T11:30:30.727Z,63.20
2023-01-18T11:33:00.508Z,52.03
2023-01-18T11:35:32.991Z,85.65
2023-01-18T11:38:02.230Z,71.28
2023-01-18T11:40:29.909Z,54.53
2023-01-18T11:43:22.505Z,85.55
2023-01-18T11:45:59.660Z,67.53
2023-01-18T11:48:32.916Z,45.05
2023-01-18T11:51:07.478Z,43.65
2023-01-18T11:53:54.356Z,45.72
2023-01-18T11:56:24.589Z,62.17
2023-01-18T11:58:51.894Z,48.58
2023-01-18T12:01:22.646Z,45.95
2023-01-18T12:04:08.447Z,65.63
2023-01-18T12:06:39.455Z,55.40
2023-01-18T12:09:06.673Z,56.90
2023-01-18T12:11:33.934Z,49.28
2023-01-18T12:14:03.537Z,47.88
2023-01-18T12:16:30.867Z,43.60
2023-01-18T12:19:10.586Z,43.65
2023-01-18T12:21:48.154Z,41.63
2023-01-18T12:24:18.992Z,49.90
2023-01-18T12:26:53.185Z,47.85
2023-01-18T12:29:26.615Z,48.85
2023-01-18T12:32:12.432Z,45.45
2023-01-18T12:34:39.641Z,38.92
2023-01-18T12:37:26.876Z,39.42
2023-01-18T12:40:08.592Z,38.92
2023-01-18T12:42:35.847Z,41.58
2023-01-18T12:45:03.035Z,42.60
2023-01-18T12:47:41.314Z,36.13
2023-01-18T12:50:15.807Z,37.65
2023-01-18T12:52:48.727Z,39.70
2023-01-18T12:55:21.059Z,39.35
2023-01-18T12:57:50.510Z,45.97
2023-01-18T13:00:22.358Z,42.38
2023-01-18T13:02:52.320Z,37.22
2023-01-18T13:05:19.570Z,40.30
2023-01-18T13:07:50.145Z,37.15
2023-01-18T13:10:22.493Z,43.88
2023-01-18T13:12:50.730Z,40.15
2023-01-18T13:15:36.764Z,55.33
2023-01-18T13:18:05.780Z,57.50
2023-01-18T13:21:05.517Z,57.65
2023-01-18T13:23:48.141Z,55.63
2023-01-18T13:26:29.554Z,56.90
2023-01-18T13:29:30.055Z,58.65
2023-01-18T13:31:57.899Z,56.03
2023-01-18T13:34:30.485Z,56.75
2023-01-18T13:37:13.316Z,61.80
2023-01-18T13:39:46.371Z,63.08
2023-01-18T13:42:22.584Z,52.13
2023-01-18T13:44:50.541Z,42.42
2023-01-18T13:47:39.350Z,41.27
2023-01-18T13:53:11.493Z,50.42
2023-01-18T13:55:40.379Z,47.50
2023-01-18T14:00:49.179Z,44.60
2023-01-18T14:03:19.351Z,56.13
2023-01-18T14:05:48.957Z,49.95
2023-01-18T14:08:20.758Z,48.53
2023-01-18T14:10:50.172Z,48.53
2023-01-18T14:13:18.574Z,46.67
2023-01-18T14:15:53.987Z,49.42
2023-01-18T14:18:21.280Z,58.00
2023-01-18T14:21:07.417Z,64.50
2023-01-18T14:23:37.683Z,40.42
2023-01-18T14:26:06.788Z,59.08
2023-01-18T14:28:39.295Z,51.83
2023-01-18T14:31:08.438Z,52.67
2023-01-18T14:33:42.387Z,51.05
2023-01-18T14:36:21.287Z,51.13
2023-01-18T14:41:17.980Z,50.83
2023-01-18T14:43:48.599Z,72.50
2023-01-18T14:46:17.932Z,82.25
2023-01-18T14:48:57.211Z,74.93
2023-01-18T14:51:26.060Z,68.47
2023-01-18T14:53:58.068Z,59.42
2023-01-18T14:56:34.933Z,66.70
2023-01-18T14:59:03.437Z,57.92
2023-01-18T15:01:32.299Z,78.78
2023-01-18T15:04:00.936Z,76.95
2023-01-18T15:06:34.430Z,75.50
2023-01-18T15:09:02.777Z,73.60
2023-01-18T15:11:30.696Z,62.15
2023-01-18T15:13:58.462Z,55.70
2023-01-18T15:16:27.615Z,64.18
2023-01-18T15:18:55.843Z,66.18
2023-01-18T15:21:24.526Z,75.65
2023-01-18T15:23:53.619Z,74.35
2023-01-18T15:26:34.171Z,77.78
2023-01-18T15:29:09.271Z,73.10
2023-01-18T15:31:45.458Z,78.75
2023-01-18T15:34:15.260Z,96.35
2023-01-18T15:36:44.575Z,117.80
2023-01-18T15:39:13.607Z,71.60
2023-01-18T15:41:42.832Z,97.30
2023-01-18T15:44:39.535Z,93.95
2023-01-18T15:47:36.929Z,81.97
2023-01-18T15:50:16.457Z,86.13
2023-01-18T15:52:45.558Z,80.72
2023-01-18T15:55:31.091Z,70.25
2023-01-18T15:58:01.124Z,77.78
2023-01-18T16:00:38.226Z,62.35
2023-01-18T16:03:06.075Z,77.97
2023-01-18T16:05:33.502Z,62.83
2023-01-18T16:08:17.708Z,60.53
2023-01-18T16:10:55.454Z,69.10
2023-01-18T16:13:24.004Z,65.05
2023-01-18T16:16:14.404Z,55.40
2023-01-18T16:18:45.719Z,72.22
2023-01-18T16:21:33.249Z,77.90
2023-01-18T16:24:00.604Z,84.65
2023-01-18T16:26:30.685Z,62.85
2023-01-18T16:29:11.447Z,58.85
2023-01-18T16:31:40.723Z,69.85
2023-01-18T16:34:19.622Z,91.90
2023-01-18T16:39:14.282Z,61.17
2023-01-18T16:41:42.529Z,65.47
2023-01-18T16:44:11.128Z,73.55
2023-01-18T16:46:38.403Z,56.25
2023-01-18T16:49:06.639Z,56.40
2023-01-18T16:51:33.915Z,71.35
2023-01-18T16:54:01.613Z,66.63
2023-01-18T16:56:28.728Z,70.97
2023-01-18T16:58:56.080Z,50.20
2023-01-18T17:01:23.340Z,54.15
2023-01-18T17:03:51.703Z,52.85
2023-01-18T17:06:20.178Z,54.75
2023-01-18T17:08:49.214Z,56.53
2023-01-18T17:11:17.581Z,52.15
2023-01-18T17:13:45.045Z,57.10
2023-01-18T17:16:16.961Z,50.67
2023-01-18T17:18:44.482Z,64.72
2023-01-18T17:21:12.249Z,52.25
2023-01-18T17:23:39.933Z,57.20
2023-01-18T17:26:07.951Z,53.47
2023-01-18T17:28:35.272Z,57.93
2023-01-18T17:31:02.649Z,44.28
2023-01-18T17:33:30.592Z,49.63
2023-01-18T17:35:57.912Z,45.92
2023-01-18T17:38:29.589Z,47.17
2023-01-18T17:40:58.151Z,51.95
2023-01-18T17:43:33.780Z,52.03
2023-01-18T17:46:05.533Z,48.38
2023-01-18T17:48:32.900Z,62.80
2023-01-18T17:51:00.199Z,55.42
2023-01-18T17:53:27.743Z,46.10
2023-01-18T17:55:54.893Z,42.55
2023-01-18T17:58:22.650Z,48.00
2023-01-18T18:00:50.192Z,55.03
2023-01-18T18:03:17.570Z,48.50
2023-01-18T18:05:46.205Z,48.55
2023-01-18T18:08:13.463Z,50.30
2023-01-18T18:10:43.324Z,50.95
2023-01-18T18:13:10.658Z,50.88
2023-01-18T18:15:37.967Z,47.40
2023-01-18T18:18:07.459Z,38.20
2023-01-18T18:20:38.537Z,40.03
2023-01-18T18:25:33.748Z,39.78
2023-01-18T18:28:01.000Z,49.17
2023-01-18T18:30:28.322Z,37.80
2023-01-18T18:32:55.576Z,39.50
2023-01-18T18:35:26.137Z,40.65
2023-01-18T18:37:54.605Z,40.13
2023-01-18T18:40:22.214Z,41.72
2023-01-18T18:43:01.100Z,37.22
2023-01-18T18:45:29.151Z,40.08
2023-01-18T18:47:57.226Z,46.97
2023-01-18T18:50:24.494Z,32.43
2023-01-18T18:52:52.192Z,36.92
2023-01-18T18:55:19.445Z,38.08
2023-01-18T18:57:46.669Z,39.88
2023-01-18T19:00:14.217Z,39.03
2023-01-18T19:02:41.597Z,36.20
2023-01-18T19:05:10.673Z,36.33
2023-01-18T19:07:38.147Z,35.35
2023-01-18T19:10:05.905Z,34.95
2023-01-18T19:12:33.214Z,39.33
2023-01-18T19:15:00.602Z,33.95
2023-01-18T19:17:31.566Z,32.45
2023-01-18T19:19:59.124Z,34.65
2023-01-18T19:22:26.374Z,33.35
2023-01-18T19:24:53.706Z,35.75
2023-01-18T19:27:24.640Z,31.88
2023-01-18T19:29:53.280Z,33.05
2023-01-18T19:32:21.187Z,29.77
2023-01-18T19:34:48.377Z,33.95
2023-01-18T19:37:15.698Z,29.10
2023-01-18T19:39:42.989Z,34.53
2023-01-18T19:42:10.253Z,37.63
2023-01-18T19:44:37.478Z,33.17
2023-01-18T19:47:04.728Z,31.55
2023-01-18T19:49:32.031Z,32.47
2023-01-18T19:51:59.455Z,25.70
2023-01-18T19:54:26.732Z,33.80
2023-01-18T19:56:54.087Z,32.13
2023-01-18T19:59:21.272Z,27.45
2023-01-18T20:01:48.682Z,29.63
2023-01-18T20:04:16.036Z,26.80
2023-01-18T20:06:45.154Z,26.50
2023-01-18T20:09:20.358Z,23.25
2023-01-18T20:11:49.844Z,27.13
2023-01-18T20:14:18.524Z,28.27
2023-01-18T20:16:46.337Z,26.05
2023-01-18T20:19:14.121Z,26.25
2023-01-18T20:21:41.538Z,26.45
2023-01-18T20:24:09.329Z,30.58
2023-01-18T20:26:39.540Z,22.35
2023-01-18T20:29:08.416Z,23.92
2023-01-18T20:31:36.646Z,25.08
2023-01-18T20:34:05.205Z,27.52
2023-01-18T20:36:34.871Z,25.20
2023-01-18T20:39:02.586Z,29.10
2023-01-18T20:41:29.851Z,35.03
2023-01-18T20:43:57.184Z,32.00
2023-01-18T20:46:24.548Z,31.10
2023-01-18T20:48:51.801Z,37.13
2023-01-18T20:51:19.073Z,33.00
2023-01-18T20:53:46.380Z,38.08
2023-01-18T20:56:28.345Z,31.83
2023-01-18T20:58:56.995Z,25.48
2023-01-18T21:01:24.297Z,26.08
2023-01-18T21:03:55.647Z,26.80
2023-01-18T21:06:23.013Z,25.25
2023-01-18T21:08:54.045Z,29.05
2023-01-18T21:11:25.500Z,28.60
2023-01-18T21:13:53.661Z,26.83
2023-01-18T21:16:22.054Z,29.77
2023-01-18T21:18:49.765Z,32.83
2023-01-18T21:21:17.048Z,33.30
2023-01-18T21:23:44.348Z,30.98
2023-01-18T21:26:12.441Z,38.75
2023-01-18T21:28:40.666Z,34.63
2023-01-18T21:31:08.031Z,23.75
2023-01-18T21:33:35.982Z,30.90
2023-01-18T21:36:04.365Z,33.90
2023-01-18T21:38:31.987Z,26.25
2023-01-18T21:41:19.179Z,30.02
2023-01-18T21:44:05.443Z,26.45
2023-01-18T21:46:32.677Z,28.30
2023-01-18T21:49:42.929Z,32.47
2023-01-18T21:52:35.217Z,26.73
2023-01-18T21:55:02.480Z,21.70
2023-01-18T21:57:29.741Z,22.17
2023-01-18T21:59:57.092Z,23.40
2023-01-18T22:02:24.389Z,27.38
2023-01-18T22:04:59.015Z,22.20
2023-01-18T22:07:26.849Z,20.00
2023-01-18T22:10:04.136Z,21.27
2023-01-18T22:12:35.093Z,19.95
2023-01-18T22:15:03.855Z,21.92
2023-01-18T22:17:31.114Z,18.73
2023-01-18T22:19:58.417Z,20.50
2023-01-18T22:22:25.642Z,20.00
2023-01-18T22:24:53.406Z,21.17
2023-01-18T22:27:20.676Z,17.35
2023-01-18T22:29:48.148Z,20.08
2023-01-18T22:32:16.293Z,22.30
2023-01-18T22:34:43.776Z,20.27
2023-01-18T22:37:11.002Z,18.60
2023-01-18T22:39:38.411Z,24.98
2023-01-18T22:42:05.701Z,19.40
2023-01-18T22:44:32.994Z,23.38
2023-01-18T22:47:00.377Z,25.58
2023-01-18T22:49:27.629Z,22.88
2023-01-18T22:51:54.916Z,27.02
2023-01-18T22:54:23.046Z,19.23
2023-01-18T22:56:50.435Z,24.70
2023-01-18T22:59:17.906Z,25.70
2023-01-18T23:01:45.446Z,26.67
2023-01-18T23:04:12.807Z,29.40
2023-01-18T23:06:46.569Z,26.65
2023-01-18T23:09:15.043Z,25.77
2023-01-18T23:11:42.474Z,27.63
2023-01-18T23:14:28.592Z,24.30
2023-01-18T23:17:14.488Z,28.52
2023-01-18T23:19:41.844Z,30.77
2023-01-18T23:22:09.197Z,31.80
2023-01-18T23:24:37.500Z,38.13
2023-01-18T23:27:05.596Z,38.30
2023-01-18T23:29:33.023Z,38.83
2023-01-18T23:32:00.384Z,35.28
2023-01-18T23:34:27.630Z,38.25
2023-01-18T23:36:55.149Z,36.13
2023-01-18T23:39:41.750Z,32.88
2023-01-18T23:42:27.922Z,39.60
2023-01-18T23:45:14.155Z,35.70
2023-01-18T23:48:00.506Z,37.58
2023-01-18T23:50:46.918Z,38.03
2023-01-18T23:53:32.989Z,36.80
2023-01-18T23:56:00.566Z,34.63
2023-01-18T23:58:28.328Z,38.20
